createdAt,value
2023-01-29T00:00:20.846Z,103276.22
2023-01-29T00:02:47.478Z,103284.00
2023-01-29T00:05:27.128Z,103269.25
2023-01-29T00:07:56.430Z,103275.34
2023-01-29T00:10:24.875Z,103273.66
2023-01-29T00:12:51.937Z,103264.00
2023-01-29T00:15:18.827Z,103256.13
2023-01-29T00:17:45.294Z,103256.13
2023-01-29T00:20:12.266Z,103250.13
2023-01-29T00:22:38.728Z,103233.66
2023-01-29T00:25:05.664Z,103242.31
2023-01-29T00:27:32.129Z,103230.97
2023-01-29T00:30:16.353Z,103230.09
2023-01-29T00:32:43.024Z,103229.19
2023-01-29T00:35:09.891Z,103231.13
2023-01-29T00:37:36.425Z,103228.56
2023-01-29T00:40:03.848Z,103235.47
2023-01-29T00:42:49.146Z,103238.84
2023-01-29T00:45:15.787Z,103244.78
2023-01-29T00:47:42.299Z,103230.22
2023-01-29T00:50:11.440Z,103230.06
2023-01-29T00:52:38.490Z,103229.13
2023-01-29T00:55:05.926Z,103227.59
2023-01-29T00:57:34.016Z,103229.03
2023-01-29T01:00:01.029Z,103219.28
2023-01-29T01:02:46.848Z,103222.84
2023-01-29T01:05:19.005Z,103226.25
2023-01-29T01:07:47.745Z,103213.88
2023-01-29T01:10:21.866Z,103213.38
2023-01-29T01:12:50.757Z,103214.97
2023-01-29T01:15:18.054Z,103203.47
2023-01-29T01:17:44.721Z,103213.22
2023-01-29T01:20:12.420Z,103205.50
2023-01-29T01:22:38.900Z,103206.09
2023-01-29T01:25:05.778Z,103200.84
2023-01-29T01:27:32.314Z,103203.53
2023-01-29T01:29:58.797Z,103210.44
2023-01-29T01:32:26.051Z,103207.63
2023-01-29T01:34:53.566Z,103217.53
2023-01-29T01:37:20.350Z,103221.69
2023-01-29T01:39:48.932Z,103220.00
2023-01-29T01:42:15.391Z,103223.41
2023-01-29T01:44:53.388Z,103228.47
2023-01-29T01:47:27.066Z,103222.38
2023-01-29T01:49:54.938Z,103228.47
2023-01-29T01:52:21.987Z,103221.59
2023-01-29T01:54:49.439Z,103220.66
2023-01-29T01:57:25.206Z,103224.22
2023-01-29T02:00:09.983Z,103226.09
2023-01-29T02:02:57.971Z,103232.03
2023-01-29T02:05:43.885Z,103214.75
2023-01-29T02:08:29.237Z,103215.41
2023-01-29T02:10:55.716Z,103217.22
2023-01-29T02:13:23.040Z,103222.63
2023-01-29T02:15:49.669Z,103214.59
2023-01-29T02:18:19.265Z,103216.28
2023-01-29T02:21:31.550Z,103232.03
2023-01-29T02:24:38.897Z,103213.81
2023-01-29T02:27:11.851Z,103220.00
2023-01-29T02:29:49.769Z,103224.47
2023-01-29T02:32:21.119Z,103221.09
2023-01-29T02:35:28.446Z,103225.25
2023-01-29T02:38:11.354Z,103227.09
2023-01-29T02:40:45.408Z,103235.97
2023-01-29T02:43:44.085Z,103239.38
2023-01-29T02:46:19.498Z,103231.75
2023-01-29T02:48:57.675Z,103236.75
2023-01-29T02:51:38.482Z,103239.38
2023-01-29T02:54:32.578Z,103242.75
2023-01-29T02:57:05.073Z,103228.88
2023-01-29T02:59:42.202Z,103221.09
2023-01-29T03:02:16.382Z,103232.25
2023-01-29T03:04:49.223Z,103245.31
2023-01-29T03:07:41.205Z,103226.19
2023-01-29T03:10:17.521Z,103230.50
2023-01-29T03:12:51.150Z,103229.56
2023-01-29T03:15:27.273Z,103224.31
2023-01-29T03:18:11.474Z,103215.75
2023-01-29T03:20:48.176Z,103213.81
2023-01-29T03:23:24.164Z,103210.31
2023-01-29T03:26:18.135Z,103214.75
2023-01-29T03:29:04.865Z,103206.94
2023-01-29T03:31:50.889Z,103200.84
2023-01-29T03:34:24.468Z,103202.63
2023-01-29T03:37:05.508Z,103183.56
2023-01-29T03:39:31.943Z,103180.94
2023-01-29T03:42:04.912Z,103176.47
2023-01-29T03:44:37.127Z,103174.94
2023-01-29T03:47:13.785Z,103179.31
2023-01-29T03:49:49.277Z,103171.44
2023-01-29T03:52:25.760Z,103177.56
2023-01-29T03:55:10.634Z,103167.13
2023-01-29T03:57:54.547Z,103172.22
2023-01-29T04:00:28.014Z,103176.53
2023-01-29T04:03:24.545Z,103159.84
2023-01-29T04:05:50.956Z,103164.34
2023-01-29T04:08:29.169Z,103166.78
2023-01-29T04:10:59.377Z,103151.91
2023-01-29T04:13:27.522Z,103146.06
2023-01-29T04:15:58.416Z,103151.31
2023-01-29T04:18:25.578Z,103148.59
2023-01-29T04:20:52.284Z,103154.69
2023-01-29T04:23:24.922Z,103157.31
2023-01-29T04:26:25.333Z,103147.00
2023-01-29T04:29:30.185Z,103153.31
2023-01-29T04:32:20.137Z,103143.22
2023-01-29T04:35:05.237Z,103139.66
2023-01-29T04:38:02.556Z,103147.47
2023-01-29T04:40:41.295Z,103138.06
2023-01-29T04:43:30.451Z,103137.13
2023-01-29T04:46:21.825Z,103126.81
2023-01-29T04:49:13.033Z,103134.50
2023-01-29T04:51:45.395Z,103127.56
2023-01-29T04:54:33.138Z,103125.72
2023-01-29T04:57:08.581Z,103123.91
2023-01-29T04:59:42.813Z,103115.53
2023-01-29T05:02:11.955Z,103119.91
2023-01-29T05:04:40.948Z,103117.22
2023-01-29T05:07:12.425Z,103115.44
2023-01-29T05:09:40.067Z,103115.44
2023-01-29T05:12:10.617Z,103112.97
2023-01-29T05:14:39.660Z,103102.75
2023-01-29T05:17:12.572Z,103119.16
2023-01-29T05:19:39.069Z,103114.84
2023-01-29T05:22:08.870Z,103111.69
2023-01-29T05:24:35.978Z,103123.72
2023-01-29T05:27:22.028Z,103124.72
2023-01-29T05:29:48.723Z,103128.13
2023-01-29T05:32:16.054Z,103121.34
2023-01-29T05:34:42.554Z,103124.88
2023-01-29T05:37:10.461Z,103130.13
2023-01-29T05:39:36.907Z,103123.72
2023-01-29T05:42:03.606Z,103116.03
2023-01-29T05:44:30.061Z,103115.31
2023-01-29T05:46:56.690Z,103117.94
2023-01-29T05:49:23.263Z,103134.38
2023-01-29T05:51:49.794Z,103129.31
2023-01-29T05:54:16.285Z,103127.44
2023-01-29T05:56:42.861Z,103120.66
2023-01-29T05:59:09.384Z,103109.41
2023-01-29T06:01:35.913Z,103103.22
2023-01-29T06:04:02.436Z,103095.41
2023-01-29T06:06:28.959Z,103098.03
2023-01-29T06:08:56.133Z,103094.59
2023-01-29T06:11:22.759Z,103089.56
2023-01-29T06:13:49.307Z,103078.91
2023-01-29T06:16:15.922Z,103081.53
2023-01-29T06:18:42.989Z,103085.84
2023-01-29T06:21:12.300Z,103090.00
2023-01-29T06:23:39.231Z,103085.78
2023-01-29T06:26:08.595Z,103067.50
2023-01-29T06:28:35.569Z,103082.25
2023-01-29T06:31:23.668Z,103082.84
2023-01-29T06:33:50.416Z,103071.41
2023-01-29T06:36:16.972Z,103060.16
2023-01-29T06:38:43.494Z,103069.88
2023-01-29T06:41:12.266Z,103073.28
2023-01-29T06:43:39.616Z,103072.41
2023-01-29T06:46:08.262Z,103066.34
2023-01-29T06:48:34.885Z,103069.78
2023-01-29T06:51:05.705Z,103072.50
2023-01-29T06:53:34.472Z,103076.84
2023-01-29T06:56:01.199Z,103062.63
2023-01-29T06:58:27.713Z,103065.47
2023-01-29T07:00:54.251Z,103074.88
2023-01-29T07:03:20.854Z,103081.75
2023-01-29T07:05:51.994Z,103067.69
2023-01-29T07:08:19.059Z,103064.31
2023-01-29T07:10:45.604Z,103069.56
2023-01-29T07:13:12.117Z,103067.78
2023-01-29T07:15:38.651Z,103070.41
2023-01-29T07:18:11.968Z,103070.31
2023-01-29T07:20:42.813Z,103070.31
2023-01-29T07:23:13.481Z,103072.19
2023-01-29T07:25:40.591Z,103082.69
2023-01-29T07:28:07.671Z,103071.41
2023-01-29T07:30:34.414Z,103081.06
2023-01-29T07:33:07.442Z,103067.09
2023-01-29T07:35:42.063Z,103067.88
2023-01-29T07:38:10.295Z,103074.72
2023-01-29T07:40:37.319Z,103064.31
2023-01-29T07:43:06.688Z,103060.75
2023-01-29T07:45:35.404Z,103060.84
2023-01-29T07:48:02.061Z,103049.25
2023-01-29T07:50:28.619Z,103039.78
2023-01-29T07:52:55.274Z,103044.84
2023-01-29T07:55:21.750Z,103051.03
2023-01-29T07:57:48.309Z,103037.91
2023-01-29T08:00:15.539Z,103039.44
2023-01-29T08:02:42.337Z,103027.25
2023-01-29T08:05:09.221Z,103020.22
2023-01-29T08:07:35.729Z,103022.66
2023-01-29T08:10:02.253Z,103027.69
2023-01-29T08:12:28.807Z,103026.66
2023-01-29T08:14:55.406Z,103017.09
2023-01-29T08:17:21.946Z,103032.66
2023-01-29T08:19:48.488Z,103024.63
2023-01-29T08:22:17.823Z,103023.63
2023-01-29T08:24:53.707Z,103015.66
2023-01-29T08:27:26.926Z,103023.34
2023-01-29T08:29:53.492Z,103013.56
2023-01-29T08:32:19.982Z,103010.94
2023-01-29T08:34:46.411Z,103008.97
2023-01-29T08:37:12.877Z,103013.28
2023-01-29T08:39:39.431Z,103004.56
2023-01-29T08:42:06.083Z,103001.78
2023-01-29T08:44:32.627Z,102993.72
2023-01-29T08:46:59.111Z,102997.00
2023-01-29T08:49:25.731Z,102996.75
2023-01-29T08:51:52.227Z,102985.69
2023-01-29T08:54:18.680Z,102995.91
2023-01-29T08:56:45.740Z,102986.25
2023-01-29T08:59:12.442Z,102987.19
2023-01-29T09:01:38.915Z,102994.91
2023-01-29T09:04:05.446Z,102988.72
2023-01-29T09:06:31.889Z,102982.69
2023-01-29T09:08:58.408Z,102981.84
2023-01-29T09:11:24.914Z,102993.69
2023-01-29T09:13:51.480Z,102984.81
2023-01-29T09:16:18.365Z,102987.59
2023-01-29T09:18:44.898Z,102981.41
2023-01-29T09:21:11.469Z,102989.88
2023-01-29T09:23:38.236Z,102981.06
2023-01-29T09:26:04.928Z,102985.47
2023-01-29T09:28:31.473Z,102992.22
2023-01-29T09:31:01.726Z,102987.66
2023-01-29T09:33:29.120Z,102991.97
2023-01-29T09:35:55.548Z,102991.63
2023-01-29T09:38:23.033Z,102987.03
2023-01-29T09:41:08.883Z,102996.34
2023-01-29T09:43:59.014Z,102988.72
2023-01-29T09:46:43.736Z,102986.84
2023-01-29T09:49:21.099Z,102989.22
2023-01-29T09:51:53.079Z,102987.19
2023-01-29T09:54:47.119Z,102994.31
2023-01-29T09:57:22.561Z,102986.31
2023-01-29T09:59:49.194Z,102989.63
2023-01-29T10:02:38.597Z,102983.44
2023-01-29T10:05:16.939Z,102989.53
2023-01-29T10:08:01.892Z,102978.00
2023-01-29T10:10:36.406Z,102985.78
2023-01-29T10:13:15.542Z,102977.88
2023-01-29T10:15:49.853Z,102974.78
2023-01-29T10:18:48.362Z,102971.16
2023-01-29T10:21:27.161Z,102977.91
2023-01-29T10:24:11.526Z,102967.66
2023-01-29T10:26:40.660Z,102968.41
2023-01-29T10:29:08.356Z,102956.22
2023-01-29T10:31:40.304Z,102965.59
2023-01-29T10:34:19.192Z,102958.84
2023-01-29T10:36:48.127Z,102944.19
2023-01-29T10:39:17.745Z,102942.44
2023-01-29T10:42:09.955Z,102945.50
2023-01-29T10:44:42.438Z,102928.81
2023-01-29T10:47:29.967Z,102937.56
2023-01-29T10:50:17.532Z,102926.75
2023-01-29T10:52:59.113Z,102917.91
2023-01-29T10:55:46.195Z,102913.41
2023-01-29T10:58:27.849Z,102920.19
2023-01-29T11:00:54.335Z,102905.72
2023-01-29T11:03:29.335Z,102897.63
2023-01-29T11:06:03.017Z,102893.31
2023-01-29T11:08:57.169Z,102896.88
2023-01-29T11:11:36.314Z,102895.94
2023-01-29T11:14:08.919Z,102893.44
2023-01-29T11:16:47.484Z,102887.31
2023-01-29T11:19:15.348Z,102884.78
2023-01-29T11:22:01.909Z,102872.47
2023-01-29T11:24:28.613Z,102877.72
2023-01-29T11:26:58.780Z,102884.69
2023-01-29T11:29:48.098Z,102872.09
2023-01-29T11:32:23.777Z,102879.91
2023-01-29T11:35:19.623Z,102877.34
2023-01-29T11:37:47.012Z,102875.84
2023-01-29T11:40:19.704Z,102876.41
2023-01-29T11:42:47.402Z,102853.88
2023-01-29T11:45:19.858Z,102859.69
2023-01-29T11:48:04.964Z,102855.94
2023-01-29T11:50:33.700Z,102854.25
2023-01-29T11:53:00.389Z,102848.34
2023-01-29T11:55:48.191Z,102837.63
2023-01-29T11:58:21.316Z,102849.84
2023-01-29T12:00:52.032Z,102842.16
2023-01-29T12:03:24.914Z,102836.03
2023-01-29T12:06:02.861Z,102840.53
2023-01-29T12:08:36.604Z,102835.00
2023-01-29T12:11:14.042Z,102825.31
2023-01-29T12:13:43.408Z,102813.50
2023-01-29T12:16:20.634Z,102817.72
2023-01-29T12:19:15.777Z,102802.78
2023-01-29T12:22:04.100Z,102806.06
2023-01-29T12:24:30.645Z,102797.88
2023-01-29T12:27:23.723Z,102786.94
2023-01-29T12:29:56.515Z,102781.94
2023-01-29T12:32:36.987Z,102773.78
2023-01-29T12:35:13.363Z,102779.97
2023-01-29T12:38:10.565Z,102768.50
2023-01-29T12:40:55.580Z,102767.38
2023-01-29T12:43:40.212Z,102770.75
2023-01-29T12:46:15.074Z,102754.78
2023-01-29T12:48:44.279Z,102744.53
2023-01-29T12:51:16.507Z,102744.44
2023-01-29T12:53:59.823Z,102740.56
2023-01-29T12:56:39.838Z,102742.38
2023-01-29T12:59:19.838Z,102719.72
2023-01-29T13:01:59.554Z,102714.25
2023-01-29T13:04:35.274Z,102704.69
2023-01-29T13:07:12.182Z,102685.44
2023-01-29T13:09:43.164Z,102701.13
2023-01-29T13:12:18.619Z,102680.41
2023-01-29T13:15:06.799Z,102673.34
2023-01-29T13:17:38.009Z,102655.88
2023-01-29T13:20:21.230Z,102654.72
2023-01-29T13:22:49.667Z,102649.38
2023-01-29T13:25:19.042Z,102642.09
2023-01-29T13:27:48.685Z,102633.06
2023-01-29T13:30:28.373Z,102631.72
2023-01-29T13:33:09.063Z,102630.69
2023-01-29T13:35:43.060Z,102620.78
2023-01-29T13:38:28.450Z,102618.88
2023-01-29T13:41:03.209Z,102618.66
2023-01-29T13:43:37.076Z,102623.09
2023-01-29T13:46:14.415Z,102607.94
2023-01-29T13:48:43.348Z,102608.59
2023-01-29T13:51:15.648Z,102615.19
2023-01-29T13:53:44.177Z,102610.16
2023-01-29T13:56:32.608Z,102602.16
2023-01-29T13:59:00.696Z,102599.00
2023-01-29T14:01:45.520Z,102610.78
2023-01-29T14:04:31.885Z,102605.31
2023-01-29T14:06:59.580Z,102608.56
2023-01-29T14:09:38.444Z,102603.84
2023-01-29T14:12:25.362Z,102601.41
2023-01-29T14:14:56.635Z,102600.25
2023-01-29T14:17:26.839Z,102598.56
2023-01-29T14:20:00.234Z,102592.34
2023-01-29T14:22:28.624Z,102586.88
2023-01-29T14:25:05.854Z,102597.31
2023-01-29T14:27:32.920Z,102591.31
2023-01-29T14:30:07.487Z,102595.50
2023-01-29T14:32:34.096Z,102591.94
2023-01-29T14:35:17.815Z,102585.84
2023-01-29T14:37:49.120Z,102577.94
2023-01-29T14:40:23.711Z,102569.72
2023-01-29T14:43:19.940Z,102570.66
2023-01-29T14:45:48.171Z,102569.72
2023-01-29T14:48:46.250Z,102568.75
2023-01-29T14:51:17.667Z,102573.41
2023-01-29T14:53:53.415Z,102571.81
2023-01-29T14:56:40.733Z,102564.13
2023-01-29T14:59:30.934Z,102569.41
2023-01-29T15:02:03.454Z,102556.22
2023-01-29T15:04:44.475Z,102544.03
2023-01-29T15:07:10.910Z,102538.66
2023-01-29T15:09:54.180Z,102538.75
2023-01-29T15:12:31.456Z,102540.34
2023-01-29T15:15:06.448Z,102533.41
2023-01-29T15:17:55.623Z,102533.50
2023-01-29T15:20:41.444Z,102527.28
2023-01-29T15:23:30.378Z,102535.09
2023-01-29T15:26:01.640Z,102525.59
2023-01-29T15:28:33.254Z,102532.53
2023-01-29T15:31:04.227Z,102530.13
2023-01-29T15:33:32.114Z,102532.16
2023-01-29T15:36:07.670Z,102529.53
2023-01-29T15:38:35.525Z,102522.66
2023-01-29T15:41:14.367Z,102507.81
2023-01-29T15:43:44.956Z,102509.72
2023-01-29T15:46:15.797Z,102507.00
2023-01-29T15:48:44.531Z,102507.94
2023-01-29T15:51:17.572Z,102501.81
2023-01-29T15:53:54.135Z,102505.31
2023-01-29T15:56:28.215Z,102496.78
2023-01-29T15:58:57.392Z,102499.53
2023-01-29T16:01:27.587Z,102491.72
2023-01-29T16:03:54.669Z,102495.31
2023-01-29T16:06:22.887Z,102501.88
2023-01-29T16:08:54.506Z,102504.50
2023-01-29T16:11:21.703Z,102507.72
2023-01-29T16:13:49.871Z,102517.53
2023-01-29T16:16:16.421Z,102516.91
2023-01-29T16:18:57.795Z,102506.91
2023-01-29T16:21:25.612Z,102516.69
2023-01-29T16:23:56.318Z,102505.66
2023-01-29T16:26:28.205Z,102512.72
2023-01-29T16:28:55.589Z,102509.66
2023-01-29T16:31:31.241Z,102525.44
2023-01-29T16:33:59.719Z,102510.06
2023-01-29T16:36:27.864Z,102505.88
2023-01-29T16:39:01.076Z,102495.56
2023-01-29T16:41:30.996Z,102494.72
2023-01-29T16:44:24.835Z,102488.84
2023-01-29T16:46:52.209Z,102481.38
2023-01-29T16:49:32.263Z,102482.19
2023-01-29T16:52:17.578Z,102491.03
2023-01-29T16:54:44.342Z,102485.25
2023-01-29T16:57:34.323Z,102477.47
2023-01-29T17:00:06.786Z,102471.38
2023-01-29T17:02:38.471Z,102470.41
2023-01-29T17:05:20.818Z,102476.63
2023-01-29T17:07:47.701Z,102470.84
2023-01-29T17:10:21.523Z,102473.66
2023-01-29T17:12:55.755Z,102472.19
2023-01-29T17:15:33.533Z,102475.69
2023-01-29T17:18:00.191Z,102464.22
2023-01-29T17:20:27.939Z,102451.16
2023-01-29T17:22:54.932Z,102464.53
2023-01-29T17:25:22.087Z,102457.06
2023-01-29T17:27:51.752Z,102468.22
2023-01-29T17:30:24.481Z,102453.28
2023-01-29T17:32:50.973Z,102457.78
2023-01-29T17:35:18.194Z,102459.38
2023-01-29T17:37:44.979Z,102466.41
2023-01-29T17:40:21.680Z,102458.66
2023-01-29T17:42:48.251Z,102442.13
2023-01-29T17:45:15.089Z,102448.88
2023-01-29T17:47:41.768Z,102438.34
2023-01-29T17:50:25.640Z,102439.31
2023-01-29T17:52:53.228Z,102429.75
2023-01-29T17:55:20.619Z,102423.63
2023-01-29T17:57:47.130Z,102421.94
2023-01-29T18:00:19.467Z,102421.13
2023-01-29T18:02:46.208Z,102416.47
2023-01-29T18:05:14.121Z,102414.69
2023-01-29T18:07:43.408Z,102401.66
2023-01-29T18:10:17.234Z,102394.72
2023-01-29T18:12:44.011Z,102398.81
2023-01-29T18:15:11.975Z,102390.19
2023-01-29T18:17:39.616Z,102391.66
2023-01-29T18:20:22.654Z,102390.72
2023-01-29T18:22:49.281Z,102381.16
2023-01-29T18:25:16.500Z,102386.09
2023-01-29T18:27:43.299Z,102382.63
2023-01-29T18:30:10.974Z,102388.63
2023-01-29T18:32:37.594Z,102376.19
2023-01-29T18:35:06.114Z,102370.00
2023-01-29T18:37:33.683Z,102361.16
2023-01-29T18:40:00.243Z,102359.28
2023-01-29T18:42:26.805Z,102352.13
2023-01-29T18:44:53.374Z,102341.81
2023-01-29T18:47:20.069Z,102333.63
2023-01-29T18:49:46.515Z,102329.19
2023-01-29T18:52:13.591Z,102320.34
2023-01-29T18:54:40.109Z,102316.03
2023-01-29T18:57:14.421Z,102327.28
2023-01-29T18:59:53.135Z,102312.47
2023-01-29T19:02:19.850Z,102308.78
2023-01-29T19:04:47.029Z,102310.06
2023-01-29T19:07:14.824Z,102304.50
2023-01-29T19:09:42.243Z,102295.75
2023-01-29T19:12:08.940Z,102285.22
2023-01-29T19:14:35.439Z,102276.50
2023-01-29T19:17:01.972Z,102263.47
2023-01-29T19:19:28.831Z,102279.97
2023-01-29T19:21:55.434Z,102261.47
2023-01-29T19:24:22.667Z,102255.34
2023-01-29T19:26:49.939Z,102283.53
2023-01-29T19:29:16.743Z,102291.00
2023-01-29T19:31:43.674Z,102280.47
2023-01-29T19:34:10.274Z,102262.06
2023-01-29T19:36:37.058Z,102261.34
2023-01-29T19:39:04.921Z,102256.09
2023-01-29T19:41:31.527Z,102271.56
2023-01-29T19:43:58.024Z,102269.00
2023-01-29T19:46:24.502Z,102261.84
2023-01-29T19:48:51.040Z,102251.56
2023-01-29T19:51:17.597Z,102269.66
2023-01-29T19:53:44.160Z,102257.44
2023-01-29T19:56:17.009Z,102253.00
2023-01-29T19:58:43.644Z,102240.81
2023-01-29T20:01:19.820Z,102242.50
2023-01-29T20:03:48.048Z,102249.56
2023-01-29T20:06:22.177Z,102256.59
2023-01-29T20:08:49.123Z,102254.91
2023-01-29T20:11:17.764Z,102239.88
2023-01-29T20:13:47.439Z,102233.66
2023-01-29T20:16:14.313Z,102237.88
2023-01-29T20:18:40.839Z,102236.78
2023-01-29T20:21:10.301Z,102242.19
2023-01-29T20:23:38.923Z,102232.38
2023-01-29T20:26:11.554Z,102240.88
2023-01-29T20:28:38.258Z,102214.72
2023-01-29T20:31:05.897Z,102220.69
2023-01-29T20:33:34.661Z,102230.59
2023-01-29T20:36:04.358Z,102222.38
2023-01-29T20:38:31.773Z,102208.38
2023-01-29T20:41:04.874Z,102225.72
2023-01-29T20:43:32.064Z,102245.19
2023-01-29T20:45:59.414Z,102239.69
2023-01-29T20:48:26.539Z,102225.50
2023-01-29T20:50:54.171Z,102220.34
2023-01-29T20:53:20.640Z,102214.03
2023-01-29T20:55:47.363Z,102221.94
2023-01-29T20:58:14.212Z,102228.88
2023-01-29T21:00:41.364Z,102223.47
2023-01-29T21:03:07.971Z,102206.66
2023-01-29T21:05:34.460Z,102223.03
2023-01-29T21:08:01.021Z,102215.84
2023-01-29T21:10:27.487Z,102211.31
2023-01-29T21:12:54.681Z,102215.63
2023-01-29T21:15:21.352Z,102215.63
2023-01-29T21:17:48.263Z,102219.84
2023-01-29T21:20:15.132Z,102231.91
2023-01-29T21:22:43.917Z,102212.53
2023-01-29T21:25:11.106Z,102215.56
2023-01-29T21:27:37.621Z,102223.34
2023-01-29T21:30:04.684Z,102226.81
2023-01-29T21:32:31.213Z,102220.00
2023-01-29T21:34:57.758Z,102219.78
2023-01-29T21:37:24.232Z,102202.81
2023-01-29T21:39:50.746Z,102195.75
2023-01-29T21:42:35.806Z,102204.03
2023-01-29T21:45:02.327Z,102223.78
2023-01-29T21:47:28.799Z,102198.06
2023-01-29T21:49:55.254Z,102159.28
2023-01-29T21:52:21.821Z,102163.25
2023-01-29T21:54:48.836Z,102152.59
2023-01-29T21:57:16.335Z,102128.78
2023-01-29T21:59:43.489Z,102130.56
2023-01-29T22:02:14.867Z,102101.38
2023-01-29T22:04:42.636Z,102083.88
2023-01-29T22:07:10.462Z,102081.25
2023-01-29T22:09:37.614Z,102086.28
2023-01-29T22:12:06.688Z,102074.19
2023-01-29T22:14:33.784Z,102060.78
2023-01-29T22:17:00.387Z,102100.16
2023-01-29T22:19:28.689Z,102110.47
2023-01-29T22:21:55.549Z,102101.59
2023-01-29T22:24:22.085Z,102098.97
2023-01-29T22:26:49.532Z,102068.44
2023-01-29T22:29:17.075Z,102077.91
2023-01-29T22:31:44.416Z,102068.09
2023-01-29T22:34:12.006Z,102075.97
2023-01-29T22:36:39.202Z,102075.03
2023-01-29T22:39:09.262Z,102066.16
2023-01-29T22:41:36.087Z,102069.50
2023-01-29T22:44:02.764Z,102063.03
2023-01-29T22:46:29.338Z,102052.38
2023-01-29T22:48:56.558Z,102046.84
2023-01-29T22:51:23.422Z,102041.47
2023-01-29T22:53:56.272Z,102041.94
2023-01-29T22:56:26.247Z,102029.72
2023-01-29T22:58:54.377Z,102026.84
2023-01-29T23:01:31.821Z,102022.16
2023-01-29T23:03:58.405Z,102035.94
2023-01-29T23:06:24.907Z,102050.78
2023-01-29T23:08:51.620Z,102050.38
2023-01-29T23:11:20.481Z,102035.19
2023-01-29T23:13:52.828Z,102027.84
2023-01-29T23:16:22.065Z,102020.66
2023-01-29T23:18:53.699Z,102026.53
2023-01-29T23:21:22.674Z,102000.16
2023-01-29T23:23:49.229Z,102010.47
2023-01-29T23:26:34.440Z,102016.19
2023-01-29T23:29:01.023Z,102015.72
2023-01-29T23:31:27.521Z,102005.16
2023-01-29T23:33:54.026Z,101987.16
2023-01-29T23:36:20.530Z,101974.44
2023-01-29T23:38:47.027Z,101972.25
2023-01-29T23:41:13.586Z,101972.25
2023-01-29T23:43:40.128Z,101964.09
2023-01-29T23:46:06.634Z,101963.56
2023-01-29T23:48:33.289Z,101966.91
2023-01-29T23:50:59.765Z,101969.28
2023-01-29T23:53:26.352Z,101966.91
2023-01-29T23:55:58.062Z,101965.44
2023-01-29T23:58:25.035Z,101950.56
